Time;durP1;ratioP1;P1;durP2;ratioP2;P2;SDS_P1;SDS_P2;PMS_P1;PMS_P2;Temp;Humidity;BMP_temperature;BMP_pressure;BME280_temperature;BME280_humidity;BME280_pressure;Samples;Min_cycle;Max_cycle;Signal;HPM_P1;HPM_P2
2022/07/10 00:00:30;;;;;;;0.60;0.20;;;19.00;99.90;;;;;;4935103;29;20456;-75
2022/07/10 00:02:59;;;;;;;0.60;0.10;;;19.00;99.90;;;;;;4954496;23;20498;-74
2022/07/10 00:05:27;;;;;;;0.60;0.10;;;19.00;99.90;;;;;;4940257;29;20530;-75
2022/07/10 00:07:56;;;;;;;0.60;0.20;;;19.00;99.90;;;;;;4936294;29;20457;-75
2022/07/10 00:10:26;;;;;;;0.60;0.10;;;19.00;99.90;;;;;;4919816;29;20456;-75
2022/07/10 00:12:54;;;;;;;0.60;0.10;;;19.00;99.90;;;;;;4916492;29;20449;-76
2022/07/10 00:15:22;;;;;;;0.60;0.10;;;18.90;99.90;;;;;;4899603;29;21054;-74
2022/07/10 00:17:50;;;;;;;0.60;0.10;;;18.90;99.90;;;;;;4899653;29;20449;-75
2022/07/10 00:20:18;;;;;;;0.60;0.20;;;18.90;99.90;;;;;;4900505;29;20457;-74
2022/07/10 00:22:46;;;;;;;0.60;0.10;;;18.90;99.90;;;;;;4900171;29;20471;-75
2022/07/10 00:25:15;;;;;;;0.60;0.10;;;18.90;99.90;;;;;;4908799;29;20449;-74
2022/07/10 00:27:44;;;;;;;0.60;0.20;;;18.90;99.90;;;;;;4917877;29;20894;-73
2022/07/10 00:30:13;;;;;;;0.60;0.10;;;18.90;99.90;;;;;;4918147;29;20463;-74
2022/07/10 00:32:41;;;;;;;0.60;0.10;;;18.90;99.90;;;;;;4918607;29;20453;-74
2022/07/10 00:35:09;;;;;;;0.60;0.10;;;18.90;99.90;;;;;;4918327;29;20487;-74
2022/07/10 00:37:37;;;;;;;0.60;0.10;;;18.90;99.90;;;;;;4917954;29;20452;-75
2022/07/10 00:40:07;;;;;;;0.60;0.20;;;18.90;99.90;;;;;;4919289;29;20479;-74
2022/07/10 00:42:35;;;;;;;0.60;0.20;;;18.90;99.90;;;;;;4917397;29;20833;-74
2022/07/10 00:45:05;;;;;;;0.60;0.10;;;18.80;99.90;;;;;;4917535;29;20453;-74
2022/07/10 00:47:33;;;;;;;0.60;0.10;;;18.80;99.90;;;;;;4917013;29;20800;-74
2022/07/10 00:50:01;;;;;;;0.60;0.10;;;18.70;99.90;;;;;;4917901;29;20962;-73
2022/07/10 00:52:29;;;;;;;0.60;0.17;;;18.70;99.90;;;;;;4918027;29;20448;-74
2022/07/10 00:54:58;;;;;;;0.60;0.20;;;18.70;99.90;;;;;;4898989;29;20516;-75
2022/07/10 00:57:26;;;;;;;0.60;0.10;;;18.70;99.90;;;;;;4900148;29;20835;-74
2022/07/10 00:59:54;;;;;;;0.60;0.10;;;18.70;99.90;;;;;;4906796;29;20820;-74
2022/07/10 01:02:23;;;;;;;0.60;0.10;;;18.60;99.90;;;;;;4901606;29;20454;-74
2022/07/10 01:04:52;;;;;;;0.60;0.10;;;18.60;99.90;;;;;;4898658;29;20477;-74
2022/07/10 01:07:20;;;;;;;0.60;0.10;;;18.60;99.90;;;;;;4903647;29;20477;-75
2022/07/10 01:09:47;;;;;;;0.60;0.10;;;18.60;99.90;;;;;;4917510;29;20960;-75
2022/07/10 01:12:16;;;;;;;0.60;0.20;;;18.60;99.90;;;;;;4917813;29;20472;-73
2022/07/10 01:14:44;;;;;;;0.60;0.10;;;18.60;99.90;;;;;;4916903;29;20531;-74
2022/07/10 01:17:13;;;;;;;0.60;0.20;;;18.60;99.90;;;;;;4917457;29;21003;-74
2022/07/10 01:19:42;;;;;;;0.60;0.10;;;18.60;99.90;;;;;;4917480;29;20445;-75
2022/07/10 01:22:11;;;;;;;0.60;0.10;;;18.60;99.90;;;;;;4907142;29;20458;-75
2022/07/10 01:24:40;;;;;;;0.60;0.20;;;18.50;99.90;;;;;;4900098;29;20537;-75
2022/07/10 01:27:08;;;;;;;0.60;0.10;;;18.50;99.90;;;;;;4915158;29;20448;-75
2022/07/10 01:29:36;;;;;;;0.60;0.10;;;18.50;99.90;;;;;;4917100;29;20961;-75
2022/07/10 01:32:05;;;;;;;0.60;0.10;;;18.50;99.90;;;;;;4917292;29;20468;-75
2022/07/10 01:34:33;;;;;;;0.60;0.20;;;18.40;99.90;;;;;;4917307;29;20486;-75
2022/07/10 01:37:01;;;;;;;0.60;0.10;;;18.40;99.90;;;;;;4916880;29;21106;-75
2022/07/10 01:39:30;;;;;;;0.70;0.30;;;;;;;;;;4917259;29;20975;-74
2022/07/10 01:41:58;;;;;;;0.60;0.10;;;18.40;99.90;;;;;;4917625;29;20916;-74
2022/07/10 01:44:26;;;;;;;0.60;0.20;;;18.40;99.90;;;;;;4917047;29;20473;-75
2022/07/10 01:46:54;;;;;;;0.60;0.10;;;18.50;99.90;;;;;;4916925;29;20449;-73
2022/07/10 01:49:22;;;;;;;0.60;0.20;;;18.40;99.90;;;;;;4917078;29;20859;-73
2022/07/10 01:51:50;;;;;;;0.60;0.20;;;18.50;99.90;;;;;;4917772;29;20940;-73
2022/07/10 01:54:18;;;;;;;0.60;0.10;;;18.50;99.90;;;;;;4917226;29;20486;-73
2022/07/10 01:56:47;;;;;;;0.60;0.20;;;18.50;99.90;;;;;;4917978;29;20488;-73
2022/07/10 01:59:15;;;;;;;0.60;0.10;;;18.50;99.90;;;;;;4917668;29;20540;-73
2022/07/10 02:01:42;;;;;;;0.60;0.10;;;18.50;99.90;;;;;;4918795;29;20449;-74
2022/07/10 02:06:56;;;;;;;0.60;0.10;;;18.50;99.90;;;;;;4919745;29;20456;-73
2022/07/10 02:09:24;;;;;;;0.60;0.10;;;18.50;99.90;;;;;;4921543;29;20460;-74
2022/07/10 02:11:53;;;;;;;0.60;0.10;;;18.50;99.90;;;;;;4917825;29;20453;-72
2022/07/10 02:14:21;;;;;;;0.60;0.10;;;18.40;99.90;;;;;;4917095;29;20480;-74
2022/07/10 02:16:48;;;;;;;0.60;0.10;;;18.40;99.90;;;;;;4917891;29;20492;-75
2022/07/10 02:19:16;;;;;;;0.60;0.10;;;18.40;99.90;;;;;;4917573;29;21034;-74
2022/07/10 02:21:45;;;;;;;0.60;0.10;;;18.40;99.90;;;;;;4918207;29;20452;-74
2022/07/10 02:24:16;;;;;;;0.60;0.10;;;18.40;99.90;;;;;;4918587;29;20467;-74
2022/07/10 02:26:44;;;;;;;0.60;0.10;;;18.40;99.90;;;;;;4918306;29;20445;-74
2022/07/10 02:29:14;;;;;;;0.60;0.10;;;18.30;99.90;;;;;;4919808;29;20489;-73
2022/07/10 02:31:42;;;;;;;0.60;0.20;;;;;;;;;;4921975;29;20801;-74
2022/07/10 02:34:11;;;;;;;0.60;0.10;;;18.20;99.90;;;;;;4917472;29;20524;-74
2022/07/10 02:36:39;;;;;;;0.60;0.10;;;18.20;99.90;;;;;;4916335;29;20488;-75
2022/07/10 02:39:08;;;;;;;0.60;0.10;;;18.10;99.90;;;;;;4915390;29;20542;-75
2022/07/10 02:41:36;;;;;;;0.60;0.20;;;18.10;99.90;;;;;;4914982;29;20453;-75
2022/07/10 02:44:05;;;;;;;1.23;0.57;;;18.00;99.90;;;;;;4920469;29;20479;-75
2022/07/10 02:46:34;;;;;;;0.60;0.10;;;18.00;99.90;;;;;;4918623;29;20444;-75
2022/07/10 02:49:02;;;;;;;0.60;0.10;;;18.00;99.90;;;;;;4916117;29;20452;-75
2022/07/10 02:51:30;;;;;;;0.60;0.10;;;17.90;99.90;;;;;;4916182;29;20452;-75
2022/07/10 02:53:58;;;;;;;0.60;0.30;;;17.90;99.90;;;;;;4915872;29;20468;-74
2022/07/10 02:56:26;;;;;;;0.60;0.20;;;17.90;99.90;;;;;;4914927;29;20631;-74
2022/07/10 02:58:54;;;;;;;0.60;0.10;;;17.80;99.90;;;;;;4916089;29;20524;-75
2022/07/10 03:01:22;;;;;;;0.60;0.10;;;17.70;99.90;;;;;;4915997;29;21026;-74
2022/07/10 03:03:51;;;;;;;0.60;0.10;;;16.20;99.90;;;;;;4915852;29;20835;-74
2022/07/10 03:06:19;;;;;;;0.60;0.10;;;17.70;99.90;;;;;;4915208;29;20456;-74
2022/07/10 03:08:46;;;;;;;0.60;0.10;;;17.60;99.90;;;;;;4915408;29;20832;-74
2022/07/10 03:11:14;;;;;;;0.60;0.10;;;17.60;99.90;;;;;;4916518;29;20468;-73
2022/07/10 03:13:42;;;;;;;0.60;0.10;;;17.60;99.90;;;;;;4917265;29;21022;-74
2022/07/10 03:16:10;;;;;;;0.60;0.10;;;17.70;99.90;;;;;;4915041;29;20456;-74
2022/07/10 03:18:38;;;;;;;0.60;0.10;;;17.70;99.90;;;;;;4915593;29;20652;-74
2022/07/10 03:21:08;;;;;;;0.60;0.20;;;17.70;99.90;;;;;;4912610;29;20487;-74
2022/07/10 03:23:36;;;;;;;0.60;0.10;;;17.60;99.90;;;;;;4914486;29;20472;-74
2022/07/10 03:26:03;;;;;;;0.60;0.10;;;17.70;99.90;;;;;;4914882;29;20557;-74
2022/07/10 03:28:31;;;;;;;0.60;0.10;;;17.70;99.90;;;;;;4915168;29;20452;-74
2022/07/10 03:30:59;;;;;;;0.60;0.13;;;17.70;99.90;;;;;;4915061;29;20455;-75
2022/07/10 03:33:27;;;;;;;0.60;0.20;;;17.60;99.90;;;;;;4915109;29;20465;-75
2022/07/10 03:35:55;;;;;;;0.60;0.20;;;17.60;99.90;;;;;;4915205;29;20459;-75
2022/07/10 03:38:24;;;;;;;0.60;0.10;;;17.50;99.90;;;;;;4914684;29;20485;-74
2022/07/10 03:40:52;;;;;;;0.60;0.10;;;17.50;99.90;;;;;;4915276;29;20507;-75
2022/07/10 03:43:20;;;;;;;0.60;0.10;;;17.50;99.90;;;;;;4915380;29;20475;-75
2022/07/10 03:45:48;;;;;;;0.60;0.10;;;17.50;99.90;;;;;;4915011;29;20550;-74
2022/07/10 03:48:15;;;;;;;0.60;0.10;;;17.40;99.90;;;;;;4914816;29;20453;-74
2022/07/10 03:50:43;;;;;;;0.60;0.20;;;17.40;99.90;;;;;;4914857;29;20959;-74
2022/07/10 03:53:12;;;;;;;0.60;0.10;;;17.40;99.90;;;;;;4915655;29;20468;-74
2022/07/10 03:55:41;;;;;;;0.60;0.10;;;17.30;99.90;;;;;;4919046;29;20932;-74
2022/07/10 03:58:08;;;;;;;0.60;0.10;;;17.30;99.90;;;;;;4917647;29;20971;-74
2022/07/10 04:00:38;;;;;;;0.60;0.20;;;17.30;99.90;;;;;;4916111;29;20452;-74
2022/07/10 04:03:07;;;;;;;0.60;0.10;;;17.30;99.90;;;;;;4914932;29;21054;-74
2022/07/10 04:05:35;;;;;;;0.60;0.10;;;17.30;99.90;;;;;;4914975;29;20863;-74
2022/07/10 04:08:05;;;;;;;0.60;0.10;;;17.30;99.90;;;;;;4915345;29;20445;-74
2022/07/10 04:10:33;;;;;;;0.60;0.10;;;17.30;99.90;;;;;;4915340;29;20452;-74
2022/07/10 04:13:02;;;;;;;0.60;0.10;;;17.10;99.90;;;;;;4915280;29;20847;-74
2022/07/10 04:15:30;;;;;;;0.60;0.10;;;17.10;99.90;;;;;;4916355;29;20473;-74
2022/07/10 04:17:58;;;;;;;0.60;0.20;;;17.10;99.90;;;;;;4922357;29;20488;-74
2022/07/10 04:20:26;;;;;;;0.60;0.10;;;17.10;99.90;;;;;;4920039;29;20448;-75
2022/07/10 04:22:54;;;;;;;0.60;0.20;;;19.90;99.90;;;;;;4917024;29;20458;-75
2022/07/10 04:25:21;;;;;;;0.60;0.10;;;17.10;99.90;;;;;;4915082;29;20457;-73
2022/07/10 04:27:49;;;;;;;0.60;0.10;;;17.10;99.90;;;;;;4914548;29;20449;-73
2022/07/10 04:30:18;;;;;;;0.60;0.10;;;17.10;99.90;;;;;;4914693;29;20970;-73
2022/07/10 04:32:46;;;;;;;0.60;0.10;;;17.10;99.90;;;;;;4914999;29;20797;-73
2022/07/10 04:35:15;;;;;;;0.60;0.10;;;17.00;99.90;;;;;;4914660;29;20456;-74
2022/07/10 04:37:42;;;;;;;0.60;0.20;;;17.00;99.90;;;;;;4914863;29;20514;-75
2022/07/10 04:40:11;;;;;;;0.60;0.10;;;17.00;99.90;;;;;;4914514;29;20467;-75
2022/07/10 04:42:39;;;;;;;0.60;0.10;;;17.00;99.90;;;;;;4914853;29;20455;-75
2022/07/10 04:45:07;;;;;;;0.60;0.10;;;17.00;99.90;;;;;;4914939;29;20444;-75
2022/07/10 04:47:37;;;;;;;0.60;0.10;;;16.90;99.90;;;;;;4914523;29;20449;-75
2022/07/10 04:50:05;;;;;;;0.60;0.10;;;16.90;99.90;;;;;;4916824;29;20459;-75
2022/07/10 04:52:33;;;;;;;0.60;0.10;;;16.90;99.90;;;;;;4919062;29;20452;-74
2022/07/10 04:55:01;;;;;;;0.60;0.10;;;16.80;99.90;;;;;;4919350;29;20480;-74
2022/07/10 04:57:29;;;;;;;0.60;0.10;;;16.90;99.90;;;;;;4919398;29;20864;-74
2022/07/10 04:59:57;;;;;;;0.60;0.10;;;16.90;99.90;;;;;;4918198;29;20465;-74
2022/07/10 05:02:25;;;;;;;0.60;0.10;;;16.90;99.90;;;;;;4918162;29;20453;-73
2022/07/10 05:04:54;;;;;;;0.60;0.10;;;16.90;99.90;;;;;;4917733;29;20490;-74
2022/07/10 05:07:22;;;;;;;0.60;0.10;;;16.90;99.90;;;;;;4917493;29;20465;-73
2022/07/10 05:09:50;;;;;;;0.60;0.10;;;16.90;99.90;;;;;;4918016;29;20448;-74
2022/07/10 05:12:18;;;;;;;0.60;0.10;;;16.80;99.90;;;;;;4918325;29;20456;-73
2022/07/10 05:14:46;;;;;;;0.60;0.10;;;16.90;99.90;;;;;;4917464;29;20471;-73
2022/07/10 05:17:14;;;;;;;0.60;0.10;;;16.90;99.90;;;;;;4917256;29;20452;-73
2022/07/10 05:19:42;;;;;;;0.60;0.10;;;16.90;99.90;;;;;;4917683;29;20453;-73
2022/07/10 05:22:11;;;;;;;0.60;0.10;;;16.90;99.90;;;;;;4917727;29;20457;-73
2022/07/10 05:24:39;;;;;;;0.60;0.10;;;17.00;99.90;;;;;;4918809;29;20480;-74
2022/07/10 05:27:07;;;;;;;0.60;0.10;;;17.00;99.90;;;;;;4918946;29;20452;-75
2022/07/10 05:29:35;;;;;;;0.60;0.10;;;17.10;99.90;;;;;;4919194;29;20456;-75
2022/07/10 05:32:03;;;;;;;0.60;0.10;;;17.10;99.90;;;;;;4918012;29;20459;-73
2022/07/10 05:34:31;;;;;;;0.60;0.10;;;17.20;99.90;;;;;;4917151;29;20480;-74
2022/07/10 05:36:58;;;;;;;0.60;0.10;;;17.20;99.90;;;;;;4917416;29;20850;-73
2022/07/10 05:39:28;;;;;;;0.60;0.10;;;17.20;99.90;;;;;;4918494;29;20491;-73
2022/07/10 05:41:57;;;;;;;0.60;0.10;;;;;;;;;;4918037;29;20460;-75
2022/07/10 05:44:25;;;;;;;0.60;0.10;;;17.20;99.90;;;;;;4918110;29;20487;-72
2022/07/10 05:46:53;;;;;;;0.60;0.10;;;17.20;99.90;;;;;;4917914;29;20448;-75
2022/07/10 05:49:21;;;;;;;0.60;0.10;;;17.20;99.90;;;;;;4919015;29;20503;-74
2022/07/10 05:51:49;;;;;;;0.60;0.10;;;17.30;99.90;;;;;;4917498;29;20449;-74
2022/07/10 05:54:16;;;;;;;0.60;0.10;;;17.30;99.90;;;;;;4918898;29;20583;-74
2022/07/10 05:56:46;;;;;;;0.60;0.10;;;17.30;99.90;;;;;;4919109;29;20448;-75
2022/07/10 05:59:14;;;;;;;0.60;0.10;;;17.30;99.90;;;;;;4920045;29;20591;-73
2022/07/10 06:01:41;;;;;;;0.60;0.10;;;17.20;99.90;;;;;;4920099;29;20460;-73
2022/07/10 06:04:09;;;;;;;0.60;0.10;;;17.30;99.90;;;;;;4943395;23;20538;-74
2022/07/10 06:06:37;;;;;;;0.60;0.10;;;17.30;99.90;;;;;;4937232;29;20539;-75
2022/07/10 06:09:06;;;;;;;0.60;0.10;;;;;;;;;;4937438;29;20446;-75
2022/07/10 06:11:33;;;;;;;0.60;0.10;;;17.40;99.90;;;;;;4937836;29;20447;-75
2022/07/10 06:14:03;;;;;;;0.60;0.10;;;17.40;99.90;;;;;;4934612;29;20572;-75
2022/07/10 06:16:31;;;;;;;0.60;0.10;;;;;;;;;;4935786;29;20486;-76
2022/07/10 06:18:59;;;;;;;0.60;0.10;;;;;;;;;;4923521;29;20535;-75
2022/07/10 06:21:28;;;;;;;0.60;0.10;;;17.50;99.90;;;;;;4897935;29;20450;-75
2022/07/10 06:23:55;;;;;;;0.60;0.10;;;17.40;99.90;;;;;;4912897;29;20473;-76
2022/07/10 06:26:23;;;;;;;0.60;0.10;;;17.40;99.90;;;;;;4898205;29;20449;-76
2022/07/10 06:28:51;;;;;;;0.60;0.10;;;17.50;99.90;;;;;;4912550;29;20447;-76
2022/07/10 06:31:20;;;;;;;0.60;0.20;;;17.50;99.90;;;;;;4917453;29;20835;-75
2022/07/10 06:33:48;;;;;;;0.60;0.10;;;17.50;99.90;;;;;;4918090;29;20476;-75
2022/07/10 06:36:16;;;;;;;0.60;0.20;;;17.50;99.90;;;;;;4901417;29;20545;-76
2022/07/10 06:38:51;;;;;;;0.60;0.10;;;;;;;;;;4898719;29;20496;-76
2022/07/10 06:41:20;;;;;;;0.60;0.13;;;17.50;99.90;;;;;;4899961;29;20461;-76
2022/07/10 06:43:48;;;;;;;0.60;0.10;;;17.50;99.90;;;;;;4898121;29;20480;-76
2022/07/10 06:46:16;;;;;;;0.60;0.10;;;17.50;99.90;;;;;;4897799;29;20449;-76
2022/07/10 06:48:44;;;;;;;0.80;0.30;;;17.70;99.90;;;;;;4898584;29;20450;-75
2022/07/10 06:51:12;;;;;;;0.60;0.10;;;17.70;99.90;;;;;;4899097;29;20457;-75
2022/07/10 06:53:45;;;;;;;0.60;0.10;;;17.80;99.90;;;;;;4897681;29;20504;-74
2022/07/10 06:56:15;;;;;;;0.60;0.10;;;17.80;99.90;;;;;;4897295;29;20460;-74
2022/07/10 06:58:43;;;;;;;0.60;0.10;;;17.90;99.90;;;;;;4897798;29;20577;-74
2022/07/10 07:01:11;;;;;;;0.60;0.20;;;18.00;99.90;;;;;;4897543;29;20872;-75
2022/07/10 07:03:39;;;;;;;0.60;0.10;;;18.10;99.90;;;;;;4897730;29;20830;-74
2022/07/10 07:06:10;;;;;;;0.60;0.10;;;18.10;99.90;;;;;;4903945;29;20464;-75
2022/07/10 07:08:38;;;;;;;0.60;0.20;;;18.10;99.90;;;;;;4916448;29;20444;-76
2022/07/10 07:11:06;;;;;;;0.60;0.10;;;18.10;99.90;;;;;;4921019;29;20915;-75
2022/07/10 07:13:34;;;;;;;0.60;0.10;;;18.20;99.90;;;;;;4929827;29;20538;-75
2022/07/10 07:16:05;;;;;;;0.60;0.10;;;18.30;99.90;;;;;;4932534;29;20481;-75
2022/07/10 07:18:37;;;;;;;0.60;0.10;;;18.30;99.90;;;;;;4922231;29;20524;-75
2022/07/10 07:23:52;;;;;;;0.60;0.10;;;18.40;99.90;;;;;;4923520;29;20970;-75
2022/07/10 07:26:20;;;;;;;0.60;0.10;;;18.40;99.90;;;;;;4921632;29;20445;-75
2022/07/10 07:28:48;;;;;;;0.60;0.10;;;18.40;99.90;;;;;;4921349;29;20448;-75
2022/07/10 07:31:17;;;;;;;0.60;0.10;;;18.50;99.90;;;;;;4905428;29;20492;-76
2022/07/10 07:33:46;;;;;;;0.60;0.10;;;18.60;99.90;;;;;;4914921;29;20548;-75
2022/07/10 07:36:13;;;;;;;0.60;0.10;;;18.60;99.90;;;;;;4916516;29;20460;-75
2022/07/10 07:38:41;;;;;;;0.70;0.33;;;18.70;99.90;;;;;;4917913;29;20449;-76
2022/07/10 07:41:11;;;;;;;0.60;0.20;;;18.70;99.90;;;;;;4917241;29;20452;-74
2022/07/10 07:43:39;;;;;;;0.60;0.10;;;18.70;99.90;;;;;;4916368;29;20556;-77
2022/07/10 07:46:07;;;;;;;0.60;0.13;;;18.70;99.90;;;;;;4915905;29;20459;-76
2022/07/10 07:48:35;;;;;;;0.60;0.10;;;18.60;99.90;;;;;;4909847;29;20457;-77
2022/07/10 07:51:03;;;;;;;0.60;0.10;;;18.70;99.90;;;;;;4912010;29;20949;-77
2022/07/10 07:53:31;;;;;;;0.70;0.20;;;18.70;99.90;;;;;;4924568;29;20504;-77
2022/07/10 07:55:59;;;;;;;0.60;0.10;;;18.70;99.90;;;;;;4922280;29;20487;-72
2022/07/10 07:58:28;;;;;;;0.60;0.23;;;18.70;99.90;;;;;;4937542;29;20491;-77
2022/07/10 08:00:57;;;;;;;0.60;0.10;;;18.70;99.90;;;;;;4938142;29;20483;-76
2022/07/10 08:03:24;;;;;;;0.60;0.10;;;18.70;99.90;;;;;;4925816;29;20461;-77
2022/07/10 08:06:12;;;;;;;0.60;0.10;;;18.70;99.90;;;;;;4916388;29;20504;-74
2022/07/10 08:08:40;;;;;;;0.60;0.10;;;18.70;99.90;;;;;;4915038;29;20840;-77
2022/07/10 08:11:09;;;;;;;0.60;0.10;;;18.70;99.90;;;;;;4915583;29;20943;-76
2022/07/10 08:13:38;;;;;;;0.60;0.10;;;18.80;99.90;;;;;;4923173;29;20472;-77
2022/07/10 08:16:07;;;;;;;0.60;0.10;;;18.80;99.90;;;;;;4924491;29;20461;-74
2022/07/10 08:18:36;;;;;;;0.60;0.10;;;18.80;99.90;;;;;;4926041;29;20453;-76
2022/07/10 08:21:05;;;;;;;0.60;0.10;;;18.80;99.90;;;;;;4918677;29;20471;-77
2022/07/10 08:23:33;;;;;;;0.60;0.10;;;18.80;99.90;;;;;;4925633;29;20439;-76
2022/07/10 08:26:01;;;;;;;0.60;0.10;;;20.60;99.90;;;;;;4928093;29;20512;-76
2022/07/10 08:28:28;;;;;;;0.60;0.10;;;18.80;99.90;;;;;;4930540;29;20440;-77
2022/07/10 08:30:58;;;;;;;0.60;0.10;;;18.80;99.90;;;;;;4945209;29;20488;-77
2022/07/10 08:33:26;;;;;;;0.60;0.20;;;18.80;99.90;;;;;;4931723;29;20535;-78
2022/07/10 08:35:58;;;;;;;0.60;0.10;;;18.80;99.90;;;;;;4931256;29;20452;-79
2022/07/10 08:38:46;;;;;;;0.60;0.10;;;18.80;99.90;;;;;;4903542;29;20494;-77
2022/07/10 08:41:15;;;;;;;0.60;0.10;;;18.90;99.90;;;;;;4918555;29;20483;-76
2022/07/10 08:43:43;;;;;;;0.60;0.10;;;19.00;99.90;;;;;;4930447;29;20465;-78
2022/07/10 08:46:13;;;;;;;0.60;0.20;;;19.00;99.90;;;;;;4922901;29;20472;-77
2022/07/10 08:48:47;;;;;;;0.60;0.10;;;19.10;99.90;;;;;;4922368;29;20460;-74
2022/07/10 08:51:20;;;;;;;0.60;0.10;;;19.10;99.90;;;;;;4923440;29;20447;-77
2022/07/10 08:53:50;;;;;;;0.60;0.13;;;19.10;99.90;;;;;;4927446;29;20449;-77
2022/07/10 08:56:18;;;;;;;0.60;0.10;;;19.10;99.90;;;;;;4929874;29;20837;-75
2022/07/10 08:58:48;;;;;;;0.60;0.10;;;19.20;99.90;;;;;;4933822;29;20439;-76
2022/07/10 09:01:22;;;;;;;0.60;0.10;;;19.20;99.90;;;;;;4928638;29;20483;-77
2022/07/10 09:03:50;;;;;;;0.60;0.10;;;19.20;99.90;;;;;;4938622;29;20545;-76
2022/07/10 09:06:19;;;;;;;0.60;0.10;;;;;;;;;;4921632;29;20481;-76
2022/07/10 09:09:05;;;;;;;0.60;0.20;;;19.20;99.90;;;;;;4920428;29;20447;-76
2022/07/10 09:11:34;;;;;;;0.60;0.10;;;19.20;99.90;;;;;;4924657;29;20468;-75
2022/07/10 09:14:04;;;;;;;0.60;0.10;;;19.20;99.90;;;;;;4924751;29;21098;-77
2022/07/10 09:16:34;;;;;;;0.60;0.10;;;19.20;99.90;;;;;;4927209;29;20478;-78
2022/07/10 09:19:17;;;;;;;0.60;0.20;;;19.20;99.90;;;;;;4931667;29;20468;-76
2022/07/10 09:21:45;;;;;;;0.60;0.10;;;19.30;99.90;;;;;;4927140;29;20579;-78
2022/07/10 09:24:14;;;;;;;1.33;0.70;;;19.30;99.90;;;;;;4932736;29;20479;-77
2022/07/10 09:26:43;;;;;;;0.60;0.10;;;19.20;99.90;;;;;;4931440;29;20977;-78
2022/07/10 09:29:12;;;;;;;0.60;0.10;;;19.20;99.90;;;;;;4931574;29;20829;-76
2022/07/10 09:31:52;;;;;;;0.60;0.10;;;19.30;99.90;;;;;;4928672;29;20461;-77
2022/07/10 09:34:37;;;;;;;0.60;0.20;;;19.50;99.90;;;;;;4931256;29;20511;-77
2022/07/10 09:37:22;;;;;;;0.93;0.60;;;19.70;99.90;;;;;;4931221;29;20870;-78
2022/07/10 09:39:53;;;;;;;0.60;0.20;;;19.70;99.90;;;;;;4908308;29;20483;-77
2022/07/10 09:42:26;;;;;;;0.60;0.10;;;20.50;99.90;;;;;;4919831;29;20495;-77
2022/07/10 09:45:13;;;;;;;0.80;0.40;;;19.70;99.90;;;;;;4918164;29;20988;-77
2022/07/10 09:47:44;;;;;;;0.60;0.10;;;19.60;99.90;;;;;;4919849;29;20469;-77
2022/07/10 09:50:23;;;;;;;0.60;0.20;;;19.60;99.90;;;;;;4926991;29;20457;-77
2022/07/10 09:52:54;;;;;;;0.60;0.20;;;19.50;99.90;;;;;;4930728;29;20449;-79
2022/07/10 09:55:24;;;;;;;0.60;0.20;;;19.40;99.90;;;;;;4923141;29;20930;-76
2022/07/10 09:57:56;;;;;;;0.73;0.40;;;19.40;99.90;;;;;;4919277;29;20445;-77
2022/07/10 10:00:26;;;;;;;0.60;0.10;;;19.30;99.90;;;;;;4914019;29;20496;-77
2022/07/10 10:03:00;;;;;;;0.60;0.10;;;19.30;99.90;;;;;;4910131;29;20459;-71
2022/07/10 10:05:35;;;;;;;0.70;0.20;;;19.50;99.90;;;;;;4931622;29;20546;-70
2022/07/10 10:08:13;;;;;;;0.60;0.10;;;19.50;99.90;;;;;;4935403;29;20452;-70
2022/07/10 10:10:47;;;;;;;0.60;0.10;;;19.60;99.90;;;;;;4935873;29;20444;-73
2022/07/10 10:13:18;;;;;;;0.60;0.20;;;19.70;99.90;;;;;;4934903;29;20490;-68
2022/07/10 10:15:48;;;;;;;0.60;0.17;;;19.70;99.90;;;;;;4935025;29;20463;-72
2022/07/10 10:18:19;;;;;;;0.60;0.13;;;19.80;99.90;;;;;;4934871;29;20471;-71
2022/07/10 10:20:47;;;;;;;0.60;0.20;;;20.00;99.90;;;;;;4916710;29;20485;-70
2022/07/10 10:23:20;;;;;;;0.60;0.10;;;;;;;;;;4916318;29;20460;-70
2022/07/10 10:25:48;;;;;;;0.70;0.20;;;20.30;99.90;;;;;;4916576;29;20445;-73
2022/07/10 10:28:20;;;;;;;0.60;0.10;;;20.40;99.90;;;;;;4925918;29;20451;-74
2022/07/10 10:30:49;;;;;;;0.70;0.20;;;20.50;99.90;;;;;;4935836;29;20475;-70
2022/07/10 10:33:45;;;;;;;0.70;0.20;;;20.80;99.90;;;;;;4934376;29;20542;-70
2022/07/10 10:36:17;;;;;;;0.70;0.10;;;20.80;99.90;;;;;;4934553;29;20820;-68
2022/07/10 10:39:06;;;;;;;0.70;0.20;;;21.00;99.90;;;;;;4935294;29;20542;-75
2022/07/10 10:41:38;;;;;;;0.70;0.10;;;20.90;99.90;;;;;;4934847;29;20570;-73
2022/07/10 10:44:22;;;;;;;0.70;0.10;;;20.90;99.90;;;;;;4934457;29;20484;-70
2022/07/10 10:47:00;;;;;;;0.70;0.10;;;20.90;99.90;;;;;;4932737;29;20455;-70
2022/07/10 10:49:53;;;;;;;0.70;0.17;;;20.80;99.90;;;;;;4934417;29;20478;-70
2022/07/10 10:52:22;;;;;;;0.70;0.10;;;20.70;99.90;;;;;;4934877;29;20456;-69
2022/07/10 10:55:11;;;;;;;0.70;0.20;;;20.60;99.90;;;;;;4933173;29;20486;-71
2022/07/10 10:57:44;;;;;;;0.70;0.20;;;20.60;99.90;;;;;;4934525;29;20443;-70
2022/07/10 11:00:15;;;;;;;0.60;0.10;;;20.60;99.90;;;;;;4934007;29;20511;-77
2022/07/10 11:02:43;;;;;;;0.70;0.20;;;20.60;99.90;;;;;;4933922;29;20511;-72
2022/07/10 11:05:44;;;;;;;0.70;0.10;;;20.80;99.90;;;;;;4935776;29;20480;-71
2022/07/10 11:08:14;;;;;;;0.70;0.30;;;20.90;99.90;;;;;;4935791;29;20458;-71
2022/07/10 11:10:43;;;;;;;0.67;0.10;;;21.10;99.90;;;;;;4935982;29;20484;-71
2022/07/10 11:13:17;;;;;;;0.70;0.10;;;;;;;;;;4926289;29;20543;-70
2022/07/10 11:15:47;;;;;;;0.70;0.10;;;21.20;99.90;;;;;;4934721;29;21059;-71
2022/07/10 11:18:16;;;;;;;0.70;0.10;;;21.40;99.90;;;;;;4934493;29;20447;-80
2022/07/10 11:20:49;;;;;;;1.67;0.63;;;21.60;99.90;;;;;;4941663;29;20487;-80
2022/07/10 11:23:42;;;;;;;0.70;0.20;;;21.80;99.90;;;;;;4941478;29;20462;-81
2022/07/10 11:26:16;;;;;;;0.70;0.10;;;21.80;99.90;;;;;;4942576;29;20452;-77
2022/07/10 11:28:53;;;;;;;0.70;0.10;;;21.90;99.90;;;;;;4946063;29;20448;-78
2022/07/10 11:31:22;;;;;;;0.70;0.20;;;22.10;99.90;;;;;;4949082;29;20463;-80
2022/07/10 11:33:52;;;;;;;0.70;0.10;;;22.00;99.90;;;;;;4949918;29;20478;-80
2022/07/10 11:36:25;;;;;;;0.70;0.20;;;21.90;99.90;;;;;;4967944;29;20463;-78
2022/07/10 11:38:58;;;;;;;0.70;0.20;;;21.80;99.90;;;;;;4959255;29;20474;-77
2022/07/10 11:41:27;;;;;;;0.70;0.10;;;21.70;99.90;;;;;;4938514;29;20848;-76
2022/07/10 11:43:57;;;;;;;0.70;0.10;;;21.60;99.90;;;;;;4937245;29;20480;-76
2022/07/10 11:46:26;;;;;;;0.70;0.20;;;21.50;99.90;;;;;;4932549;29;20509;-69
2022/07/10 11:48:56;;;;;;;0.67;0.10;;;21.50;99.90;;;;;;4926281;29;20440;-69
2022/07/10 11:51:27;;;;;;;0.70;0.20;;;21.50;99.90;;;;;;4932228;29;20544;-69
2022/07/10 11:54:08;;;;;;;0.70;0.20;;;21.70;99.90;;;;;;4934369;29;20464;-70
2022/07/10 11:56:38;;;;;;;0.70;0.17;;;21.70;99.90;;;;;;4925806;29;20469;-71
2022/07/10 11:59:07;;;;;;;0.70;0.20;;;21.80;99.90;;;;;;4937122;29;20451;-70
2022/07/10 12:01:41;;;;;;;0.70;0.20;;;21.80;99.90;;;;;;4937436;29;20484;-70
2022/07/10 12:04:10;;;;;;;0.70;0.10;;;21.80;99.90;;;;;;4939663;29;20569;-71
2022/07/10 12:06:42;;;;;;;0.70;0.10;;;21.80;99.90;;;;;;4939843;29;20452;-73
2022/07/10 12:09:11;;;;;;;0.70;0.20;;;21.70;99.90;;;;;;4937894;29;20463;-70
2022/07/10 12:11:40;;;;;;;0.70;0.20;;;21.60;99.90;;;;;;4938942;29;20456;-71
2022/07/10 12:14:14;;;;;;;0.70;0.10;;;21.50;99.90;;;;;;4939370;29;20471;-72
2022/07/10 12:16:43;;;;;;;0.70;0.10;;;21.50;99.90;;;;;;4974417;23;20597;-72
2022/07/10 12:19:14;;;;;;;0.70;0.10;;;21.50;99.90;;;;;;4945591;28;20447;-70
2022/07/10 12:21:45;;;;;;;0.70;0.20;;;21.50;99.90;;;;;;4943722;29;20479;-75
2022/07/10 12:24:15;;;;;;;0.70;0.10;;;21.50;99.90;;;;;;4938638;29;20458;-71
2022/07/10 12:26:44;;;;;;;0.70;0.10;;;21.50;99.90;;;;;;4940366;29;20975;-72
2022/07/10 12:29:19;;;;;;;0.70;0.17;;;21.60;99.90;;;;;;4940711;29;20457;-72
2022/07/10 12:31:49;;;;;;;0.70;0.20;;;21.50;99.90;;;;;;4940371;29;20526;-72
2022/07/10 12:34:18;;;;;;;0.70;0.10;;;21.50;99.90;;;;;;4938278;29;20447;-72
2022/07/10 12:36:50;;;;;;;0.70;0.20;;;21.50;99.90;;;;;;4938855;29;20464;-73
2022/07/10 12:39:19;;;;;;;0.70;0.10;;;21.50;99.90;;;;;;4937596;29;20455;-70
2022/07/10 12:41:58;;;;;;;0.70;0.10;;;21.50;99.90;;;;;;4934927;29;20559;-68
2022/07/10 12:44:37;;;;;;;0.70;0.10;;;21.60;99.90;;;;;;4940216;29;20502;-70
2022/07/10 12:47:09;;;;;;;0.70;0.10;;;21.60;99.90;;;;;;4940105;29;20485;-69
2022/07/10 12:49:51;;;;;;;0.70;0.20;;;21.70;99.90;;;;;;4938997;29;20452;-67
2022/07/10 12:52:26;;;;;;;0.70;0.10;;;21.70;99.90;;;;;;4921393;29;20452;-69
2022/07/10 12:55:10;;;;;;;0.70;0.10;;;21.80;99.90;;;;;;4921474;29;20966;-70
2022/07/10 12:57:51;;;;;;;0.70;0.10;;;21.90;99.90;;;;;;4921303;29;20467;-69
2022/07/10 13:00:21;;;;;;;0.70;0.30;;;21.90;99.90;;;;;;4930406;29;20805;-69
2022/07/10 13:02:52;;;;;;;0.70;0.20;;;22.00;99.90;;;;;;4938783;29;21161;-68
2022/07/10 13:05:30;;;;;;;0.70;0.10;;;22.00;99.90;;;;;;4936914;29;20462;-66
2022/07/10 13:08:12;;;;;;;0.70;0.10;;;22.10;99.90;;;;;;4926467;29;20496;-68
2022/07/10 13:10:41;;;;;;;0.80;0.30;;;22.10;99.90;;;;;;4917841;29;20944;-68